createdAt,value
2022-07-31T00:01:16.668Z,83.18
2022-07-31T00:11:22.924Z,83.36
2022-07-31T00:21:30.141Z,83.74
2022-07-31T00:31:38.948Z,83.94
2022-07-31T00:41:47.246Z,83.97
2022-07-31T00:51:54.423Z,84.49
2022-07-31T01:02:00.728Z,84.95
2022-07-31T01:12:14.286Z,85.62
2022-07-31T01:22:34.141Z,85.89
2022-07-31T01:32:48.003Z,86.06
2022-07-31T01:43:01.434Z,86.11
2022-07-31T01:53:10.358Z,86.24
2022-07-31T02:03:17.890Z,86.18
2022-07-31T02:13:45.860Z,86.46
2022-07-31T02:23:52.513Z,86.63
2022-07-31T02:33:59.648Z,86.73
2022-07-31T02:44:07.773Z,86.96
2022-07-31T02:54:15.228Z,87.43
2022-07-31T03:04:22.775Z,87.52
2022-07-31T03:14:33.041Z,87.53
2022-07-31T03:24:39.797Z,87.80
2022-07-31T03:34:46.826Z,87.86
2022-07-31T03:44:54.864Z,88.09
2022-07-31T03:55:02.529Z,88.22
2022-07-31T04:05:10.974Z,88.26
2022-07-31T04:15:18.017Z,88.51
2022-07-31T04:25:23.953Z,88.59
2022-07-31T04:35:30.998Z,88.89
2022-07-31T04:45:38.523Z,89.11
2022-07-31T04:56:04.697Z,89.13
2022-07-31T05:06:15.892Z,89.37
2022-07-31T05:16:24.313Z,89.59
2022-07-31T05:26:32.113Z,89.47
2022-07-31T05:36:39.685Z,89.50
2022-07-31T05:46:46.739Z,89.56
2022-07-31T05:56:53.812Z,89.45
2022-07-31T06:07:00.963Z,89.52
2022-07-31T06:17:06.483Z,89.58
2022-07-31T06:27:21.452Z,89.71
2022-07-31T06:37:40.193Z,89.70
2022-07-31T06:47:47.230Z,89.87
2022-07-31T06:57:54.543Z,89.90
2022-07-31T07:08:01.614Z,89.92
2022-07-31T07:18:09.368Z,89.86
2022-07-31T07:28:30.608Z,89.85
2022-07-31T07:38:38.332Z,89.91
2022-07-31T07:48:46.634Z,90.14
2022-07-31T07:58:53.803Z,90.00
2022-07-31T08:09:01.325Z,90.12
2022-07-31T08:19:07.577Z,90.14
2022-07-31T08:29:14.667Z,90.03
2022-07-31T08:39:22.484Z,90.13
2022-07-31T08:49:31.076Z,90.16
2022-07-31T08:59:37.914Z,90.33
2022-07-31T09:09:52.151Z,90.28
2022-07-31T09:19:59.359Z,90.51
2022-07-31T09:30:08.537Z,90.56
2022-07-31T09:40:14.975Z,90.60
2022-07-31T09:50:28.275Z,90.84
2022-07-31T10:00:35.949Z,90.98
2022-07-31T10:10:48.290Z,91.21
2022-07-31T10:20:58.525Z,91.63
2022-07-31T10:31:07.003Z,91.55
2022-07-31T10:41:16.950Z,91.56
2022-07-31T10:51:24.803Z,91.52
2022-07-31T11:01:32.315Z,91.48
2022-07-31T11:11:39.978Z,91.49
2022-07-31T11:21:47.103Z,91.63
2022-07-31T11:31:54.221Z,91.61
2022-07-31T11:42:03.841Z,91.70
2022-07-31T11:52:30.820Z,91.84
2022-07-31T12:02:41.615Z,91.87
2022-07-31T12:12:48.965Z,91.75
2022-07-31T12:23:01.323Z,91.85
2022-07-31T12:33:06.298Z,91.80
2022-07-31T12:43:13.327Z,91.68
2022-07-31T12:53:20.499Z,91.68
2022-07-31T13:03:45.314Z,91.73
2022-07-31T13:13:52.722Z,91.66
2022-07-31T13:23:59.804Z,91.76
2022-07-31T13:34:07.345Z,91.70
2022-07-31T13:44:14.396Z,91.89
2022-07-31T13:54:24.398Z,91.86
2022-07-31T14:04:38.814Z,91.75
2022-07-31T14:14:46.648Z,91.77
2022-07-31T14:24:53.295Z,91.77
2022-07-31T14:35:04.583Z,91.76
2022-07-31T14:45:15.533Z,91.62
2022-07-31T14:55:24.549Z,91.53
2022-07-31T15:06:49.242Z,91.51
2022-07-31T15:15:59.751Z,91.32
2022-07-31T15:26:07.195Z,91.35
2022-07-31T15:36:15.382Z,91.07
2022-07-31T15:46:22.871Z,90.83
2022-07-31T15:56:28.997Z,90.95
2022-07-31T16:06:36.295Z,90.77
2022-07-31T16:16:45.892Z,90.51
2022-07-31T16:26:53.462Z,90.39
2022-07-31T16:37:00.603Z,90.02
2022-07-31T16:47:08.942Z,90.07
2022-07-31T16:57:16.791Z,89.80
2022-07-31T17:07:23.881Z,89.84
2022-07-31T17:17:31.397Z,89.78
2022-07-31T17:27:39.040Z,89.53
2022-07-31T17:37:46.130Z,89.41
2022-07-31T17:48:03.314Z,89.31
2022-07-31T17:58:11.653Z,89.12
2022-07-31T18:08:18.750Z,89.26
2022-07-31T18:18:26.079Z,88.98
2022-07-31T18:28:33.631Z,88.95
2022-07-31T18:38:41.094Z,88.86
2022-07-31T18:48:54.544Z,88.86
2022-07-31T18:59:02.566Z,88.67
2022-07-31T19:09:09.586Z,88.72
2022-07-31T19:19:17.075Z,88.85
2022-07-31T19:29:25.020Z,88.77
2022-07-31T19:39:31.412Z,88.98
2022-07-31T19:49:41.299Z,88.87
2022-07-31T19:59:48.540Z,89.07
2022-07-31T20:09:54.952Z,88.92
2022-07-31T20:20:15.682Z,88.96
2022-07-31T20:40:31.923Z,89.09
2022-07-31T20:50:39.147Z,89.01
2022-07-31T21:00:47.787Z,88.97
2022-07-31T21:10:55.165Z,88.95
2022-07-31T21:21:02.386Z,88.85
2022-07-31T21:31:10.329Z,88.67
2022-07-31T21:41:17.770Z,88.95
2022-07-31T21:51:25.870Z,88.64
2022-07-31T22:01:33.286Z,88.51
2022-07-31T22:11:40.522Z,88.59
2022-07-31T22:21:46.686Z,88.37
2022-07-31T22:31:53.900Z,88.46
2022-07-31T22:42:01.433Z,88.42
2022-07-31T22:52:12.303Z,88.30
2022-07-31T23:02:20.423Z,88.32
2022-07-31T23:12:28.364Z,88.08
2022-07-31T23:22:34.956Z,88.09
2022-07-31T23:32:42.127Z,87.89
2022-07-31T23:42:49.173Z,88.02
2022-07-31T23:52:56.460Z,87.79
